sensor_id;sensor_type;location;lat;lon;timestamp;pressure;altitude;pressure_sealevel;temperature;humidity
49104;BME280;34915;52.926;11.116;2022-11-06T00:00:35;101599.88;;;7.94;94.12
49104;BME280;34915;52.926;11.116;2022-11-06T00:03:01;101599.44;;;8.03;92.98
49104;BME280;34915;52.926;11.116;2022-11-06T00:05:27;101586.03;;;7.89;93.99
49104;BME280;34915;52.926;11.116;2022-11-06T00:08:11;101594.16;;;7.85;94.36
49104;BME280;34915;52.926;11.116;2022-11-06T00:10:37;101591.75;;;7.81;93.68
49104;BME280;34915;52.926;11.116;2022-11-06T00:13:03;101583.97;;;7.78;93.75
49104;BME280;34915;52.926;11.116;2022-11-06T00:15:28;101583.34;;;7.73;94.45
49104;BME280;34915;52.926;11.116;2022-11-06T00:17:54;101584.09;;;7.75;94.15
49104;BME280;34915;52.926;11.116;2022-11-06T00:20:20;101581.16;;;7.62;94.72
49104;BME280;34915;52.926;11.116;2022-11-06T00:22:48;101581.44;;;7.56;95.65
49104;BME280;34915;52.926;11.116;2022-11-06T00:25:13;101587.13;;;7.47;96.78
49104;BME280;34915;52.926;11.116;2022-11-06T00:27:39;101590.13;;;7.40;96.95
49104;BME280;34915;52.926;11.116;2022-11-06T00:30:06;101597.59;;;7.31;97.13
49104;BME280;34915;52.926;11.116;2022-11-06T00:32:38;101599.34;;;7.30;97.78
49104;BME280;34915;52.926;11.116;2022-11-06T00:35:05;101600.59;;;7.22;98.93
49104;BME280;34915;52.926;11.116;2022-11-06T00:37:30;101603.56;;;7.14;99.84
49104;BME280;34915;52.926;11.116;2022-11-06T00:39:56;101599.50;;;7.07;99.93
49104;BME280;34915;52.926;11.116;2022-11-06T00:42:24;101593.44;;;7.05;99.92
49104;BME280;34915;52.926;11.116;2022-11-06T00:44:49;101602.50;;;6.98;100.00
49104;BME280;34915;52.926;11.116;2022-11-06T00:47:15;101611.47;;;6.94;100.00
49104;BME280;34915;52.926;11.116;2022-11-06T00:49:41;101604.63;;;6.90;100.00
49104;BME280;34915;52.926;11.116;2022-11-06T00:52:06;101607.91;;;6.95;100.00
49104;BME280;34915;52.926;11.116;2022-11-06T00:54:32;101604.34;;;6.96;100.00
49104;BME280;34915;52.926;11.116;2022-11-06T00:56:57;101602.25;;;7.04;100.00
49104;BME280;34915;52.926;11.116;2022-11-06T00:59:23;101590.00;;;7.03;100.00
49104;BME280;34915;52.926;11.116;2022-11-06T01:01:51;101584.81;;;7.02;100.00
49104;BME280;34915;52.926;11.116;2022-11-06T01:04:19;101581.16;;;7.04;100.00
49104;BME280;34915;52.926;11.116;2022-11-06T01:06:47;101586.56;;;7.01;100.00
49104;BME280;34915;52.926;11.116;2022-11-06T01:09:15;101583.16;;;6.99;100.00
49104;BME280;34915;52.926;11.116;2022-11-06T01:11:44;101580.84;;;6.92;100.00
49104;BME280;34915;52.926;11.116;2022-11-06T01:14:12;101585.16;;;6.94;100.00
49104;BME280;34915;52.926;11.116;2022-11-06T01:16:38;101585.41;;;6.88;100.00
49104;BME280;34915;52.926;11.116;2022-11-06T01:19:04;101587.38;;;6.84;100.00
49104;BME280;34915;52.926;11.116;2022-11-06T01:21:33;101576.97;;;6.81;100.00
49104;BME280;34915;52.926;11.116;2022-11-06T01:24:01;101576.25;;;6.77;100.00
49104;BME280;34915;52.926;11.116;2022-11-06T01:26:28;101574.59;;;6.75;100.00
49104;BME280;34915;52.926;11.116;2022-11-06T01:28:54;101572.22;;;6.69;100.00
49104;BME280;34915;52.926;11.116;2022-11-06T01:31:23;101569.03;;;6.61;100.00
49104;BME280;34915;52.926;11.116;2022-11-06T01:33:49;101570.88;;;6.59;100.00
49104;BME280;34915;52.926;11.116;2022-11-06T01:36:17;101560.59;;;6.53;100.00
49104;BME280;34915;52.926;11.116;2022-11-06T01:38:44;101558.75;;;6.55;100.00
49104;BME280;34915;52.926;11.116;2022-11-06T01:41:15;101563.25;;;6.53;100.00
49104;BME280;34915;52.926;11.116;2022-11-06T01:43:47;101565.75;;;6.56;100.00
49104;BME280;34915;52.926;11.116;2022-11-06T01:46:18;101569.03;;;6.61;100.00
49104;BME280;34915;52.926;11.116;2022-11-06T01:48:51;101569.91;;;6.61;100.00
49104;BME280;34915;52.926;11.116;2022-11-06T01:51:20;101566.09;;;6.68;100.00
49104;BME280;34915;52.926;11.116;2022-11-06T01:53:48;101560.56;;;6.74;100.00
49104;BME280;34915;52.926;11.116;2022-11-06T01:56:15;101549.78;;;6.80;100.00
49104;BME280;34915;52.926;11.116;2022-11-06T01:58:43;101552.34;;;6.82;100.00
49104;BME280;34915;52.926;11.116;2022-11-06T02:01:10;101548.78;;;6.83;100.00
49104;BME280;34915;52.926;11.116;2022-11-06T02:03:36;101545.09;;;6.86;100.00
49104;BME280;34915;52.926;11.116;2022-11-06T02:06:06;101543.41;;;6.86;100.00
49104;BME280;34915;52.926;11.116;2022-11-06T02:08:33;101534.28;;;6.92;100.00
49104;BME280;34915;52.926;11.116;2022-11-06T02:10:59;101541.41;;;6.90;100.00
49104;BME280;34915;52.926;11.116;2022-11-06T02:14:01;101529.84;;;6.94;100.00
49104;BME280;34915;52.926;11.116;2022-11-06T02:27:44;101534.78;;;7.20;100.00
49104;BME280;34915;52.926;11.116;2022-11-06T02:30:12;101529.06;;;7.31;100.00
49104;BME280;34915;52.926;11.116;2022-11-06T02:33:00;101525.00;;;7.24;100.00
49104;BME280;34915;52.926;11.116;2022-11-06T02:35:34;101531.69;;;7.31;100.00
49104;BME280;34915;52.926;11.116;2022-11-06T02:38:06;101528.88;;;7.35;100.00
49104;BME280;34915;52.926;11.116;2022-11-06T02:40:35;101512.91;;;7.38;100.00
49104;BME280;34915;52.926;11.116;2022-11-06T02:43:07;101512.91;;;7.38;100.00
49104;BME280;34915;52.926;11.116;2022-11-06T02:45:39;101515.63;;;7.36;100.00
49104;BME280;34915;52.926;11.116;2022-11-06T02:48:08;101513.31;;;7.29;100.00
49104;BME280;34915;52.926;11.116;2022-11-06T02:50:40;101513.31;;;7.29;100.00
49104;BME280;34915;52.926;11.116;2022-11-06T02:53:08;101515.97;;;7.29;100.00
49104;BME280;34915;52.926;11.116;2022-11-06T02:58:51;101518.47;;;7.32;100.00
49104;BME280;34915;52.926;11.116;2022-11-06T03:01:27;101516.75;;;7.31;100.00
49104;BME280;34915;52.926;11.116;2022-11-06T03:03:57;101514.59;;;7.39;100.00
49104;BME280;34915;52.926;11.116;2022-11-06T03:06:35;101503.38;;;7.54;100.00
49104;BME280;34915;52.926;11.116;2022-11-06T03:09:06;101495.59;;;7.51;100.00
49104;BME280;34915;52.926;11.116;2022-11-06T03:11:35;101494.50;;;7.55;100.00
49104;BME280;34915;52.926;11.116;2022-11-06T03:14:20;101498.09;;;7.54;100.00
49104;BME280;34915;52.926;11.116;2022-11-06T03:19:45;101498.34;;;7.48;100.00
49104;BME280;34915;52.926;11.116;2022-11-06T03:22:25;101496.53;;;7.50;100.00
49104;BME280;34915;52.926;11.116;2022-11-06T03:30:22;101483.69;;;7.61;100.00
49104;BME280;34915;52.926;11.116;2022-11-06T03:33:01;101488.19;;;7.59;100.00
49104;BME280;34915;52.926;11.116;2022-11-06T03:35:38;101480.13;;;7.62;100.00
49104;BME280;34915;52.926;11.116;2022-11-06T03:41:02;101483.25;;;7.70;100.00
49104;BME280;34915;52.926;11.116;2022-11-06T03:43:34;101471.00;;;7.69;100.00
49104;BME280;34915;52.926;11.116;2022-11-06T03:46:04;101471.00;;;7.69;100.00
49104;BME280;34915;52.926;11.116;2022-11-06T03:48:39;101475.06;;;7.76;100.00
49104;BME280;34915;52.926;11.116;2022-11-06T03:51:14;101465.59;;;7.72;100.00
49104;BME280;34915;52.926;11.116;2022-11-06T03:53:52;101459.72;;;7.83;100.00
49104;BME280;34915;52.926;11.116;2022-11-06T03:56:40;101462.97;;;7.88;100.00
49104;BME280;34915;52.926;11.116;2022-11-06T03:59:08;101455.44;;;7.81;100.00
49104;BME280;34915;52.926;11.116;2022-11-06T04:01:39;101454.44;;;7.83;100.00
49104;BME280;34915;52.926;11.116;2022-11-06T04:04:32;101456.16;;;7.84;100.00
49104;BME280;34915;52.926;11.116;2022-11-06T04:07:08;101453.44;;;7.86;100.00
49104;BME280;34915;52.926;11.116;2022-11-06T04:09:38;101461.28;;;7.87;100.00
49104;BME280;34915;52.926;11.116;2022-11-06T04:12:24;101464.53;;;7.92;100.00
49104;BME280;34915;52.926;11.116;2022-11-06T04:15:17;101457.56;;;7.91;100.00
49104;BME280;34915;52.926;11.116;2022-11-06T04:17:44;101464.06;;;7.84;100.00
49104;BME280;34915;52.926;11.116;2022-11-06T04:20:11;101464.22;;;7.82;100.00
49104;BME280;34915;52.926;11.116;2022-11-06T04:26:16;101444.56;;;8.05;100.00
49104;BME280;34915;52.926;11.116;2022-11-06T04:29:02;101450.44;;;7.93;100.00
49104;BME280;34915;52.926;11.116;2022-11-06T04:34:44;101432.75;;;7.95;100.00
49104;BME280;34915;52.926;11.116;2022-11-06T04:37:26;101441.59;;;7.94;100.00
49104;BME280;34915;52.926;11.116;2022-11-06T04:40:04;101441.72;;;7.91;100.00
49104;BME280;34915;52.926;11.116;2022-11-06T04:45:37;101437.78;;;8.00;100.00
49104;BME280;34915;52.926;11.116;2022-11-06T04:48:04;101450.38;;;7.95;100.00
49104;BME280;34915;52.926;11.116;2022-11-06T04:50:35;101442.69;;;7.90;100.00
49104;BME280;34915;52.926;11.116;2022-11-06T04:53:04;101450.75;;;7.87;100.00
49104;BME280;34915;52.926;11.116;2022-11-06T04:55:38;101450.44;;;7.93;100.00
49104;BME280;34915;52.926;11.116;2022-11-06T04:58:09;101448.72;;;7.92;100.00
49104;BME280;34915;52.926;11.116;2022-11-06T05:00:36;101447.00;;;7.91;100.00
49104;BME280;34915;52.926;11.116;2022-11-06T05:03:04;101445.78;;;7.82;100.00
49104;BME280;34915;52.926;11.116;2022-11-06T05:05:33;101445.31;;;7.90;100.00
49104;BME280;34915;52.926;11.116;2022-11-06T05:07:59;101441.16;;;8.03;100.00
49104;BME280;34915;52.926;11.116;2022-11-06T05:10:24;101439.59;;;7.99;100.00
49104;BME280;34915;52.926;11.116;2022-11-06T05:12:50;101434.63;;;7.93;100.00
49104;BME280;34915;52.926;11.116;2022-11-06T05:15:19;101435.44;;;8.12;100.00
49104;BME280;34915;52.926;11.116;2022-11-06T05:17:46;101439.44;;;8.02;100.00
49104;BME280;34915;52.926;11.116;2022-11-06T05:20:14;101433.00;;;8.08;100.00
49104;BME280;34915;52.926;11.116;2022-11-06T05:22:41;101445.84;;;8.15;100.00
49104;BME280;34915;52.926;11.116;2022-11-06T05:25:36;101435.28;;;8.15;100.00
49104;BME280;34915;52.926;11.116;2022-11-06T05:28:04;101432.63;;;8.32;100.00
49104;BME280;34915;52.926;11.116;2022-11-06T05:30:32;101438.94;;;8.30;100.00
49104;BME280;34915;52.926;11.116;2022-11-06T05:32:58;101439.47;;;8.36;100.00
49104;BME280;34915;52.926;11.116;2022-11-06T05:35:24;101437.63;;;8.38;99.25
49104;BME280;34915;52.926;11.116;2022-11-06T05:37:49;101445.09;;;8.47;99.38
49104;BME280;34915;52.926;11.116;2022-11-06T05:40:15;101441.03;;;8.40;98.88
49104;BME280;34915;52.926;11.116;2022-11-06T05:42:42;101441.50;;;8.31;100.00
49104;BME280;34915;52.926;11.116;2022-11-06T05:45:09;101428.91;;;8.36;100.00
49104;BME280;34915;52.926;11.116;2022-11-06T05:47:38;101442.75;;;8.41;99.48
49104;BME280;34915;52.926;11.116;2022-11-06T05:50:04;101446.47;;;8.37;100.00
49104;BME280;34915;52.926;11.116;2022-11-06T05:52:30;101445.94;;;8.47;100.00
49104;BME280;34915;52.926;11.116;2022-11-06T05:54:55;101445.16;;;8.45;98.77
49104;BME280;34915;52.926;11.116;2022-11-06T05:57:21;101435.97;;;8.52;99.87
49104;BME280;34915;52.926;11.116;2022-11-06T05:59:46;101429.69;;;8.55;98.05
49104;BME280;34915;52.926;11.116;2022-11-06T06:02:12;101431.25;;;8.59;97.77
49104;BME280;34915;52.926;11.116;2022-11-06T06:04:37;101429.84;;;8.52;98.47
49104;BME280;34915;52.926;11.116;2022-11-06T06:07:03;101424.41;;;8.55;99.25
49104;BME280;34915;52.926;11.116;2022-11-06T06:09:28;101412.53;;;8.63;98.37
49104;BME280;34915;52.926;11.116;2022-11-06T06:11:54;101422.69;;;8.54;98.54
49104;BME280;34915;52.926;11.116;2022-11-06T06:14:21;101428.13;;;8.51;98.25
49104;BME280;34915;52.926;11.116;2022-11-06T06:16:46;101436.69;;;8.56;98.63
49104;BME280;34915;52.926;11.116;2022-11-06T06:19:12;101432.16;;;8.58;97.74
49104;BME280;34915;52.926;11.116;2022-11-06T06:21:38;101427.97;;;8.54;98.53
49104;BME280;34915;52.926;11.116;2022-11-06T06:24:04;101424.41;;;8.55;98.24
49104;BME280;34915;52.926;11.116;2022-11-06T06:26:30;101419.59;;;8.46;98.65
49104;BME280;34915;52.926;11.116;2022-11-06T06:28:56;101427.44;;;8.47;99.51
49104;BME280;34915;52.926;11.116;2022-11-06T06:31:25;101423.94;;;8.64;97.20
49104;BME280;34915;52.926;11.116;2022-11-06T06:33:52;101425.66;;;8.65;97.59
49104;BME280;34915;52.926;11.116;2022-11-06T06:36:18;101426.47;;;8.65;98.23
49104;BME280;34915;52.926;11.116;2022-11-06T06:38:43;101436.88;;;8.68;96.08
49104;BME280;34915;52.926;11.116;2022-11-06T06:41:10;101431.09;;;8.62;97.94
49104;BME280;34915;52.926;11.116;2022-11-06T06:43:36;101436.88;;;8.68;97.82
49104;BME280;34915;52.926;11.116;2022-11-06T06:46:04;101426.88;;;8.75;98.45
49104;BME280;34915;52.926;11.116;2022-11-06T06:48:31;101431.59;;;8.68;98.75
49104;BME280;34915;52.926;11.116;2022-11-06T06:51:00;101439.63;;;8.67;98.50
49104;BME280;34915;52.926;11.116;2022-11-06T06:53:27;101434.16;;;8.70;97.11
49104;BME280;34915;52.926;11.116;2022-11-06T06:55:53;101425.47;;;8.68;97.40
49104;BME280;34915;52.926;11.116;2022-11-06T06:58:19;101423.75;;;8.67;99.31
49104;BME280;34915;52.926;11.116;2022-11-06T07:00:45;101428.28;;;8.82;97.11
49104;BME280;34915;52.926;11.116;2022-11-06T07:03:11;101425.16;;;8.74;99.09
49104;BME280;34915;52.926;11.116;2022-11-06T07:05:37;101431.19;;;8.76;98.42
49104;BME280;34915;52.926;11.116;2022-11-06T07:08:03;101427.22;;;8.84;96.64
49104;BME280;34915;52.926;11.116;2022-11-06T07:10:30;101417.53;;;8.84;96.84
49104;BME280;34915;52.926;11.116;2022-11-06T07:13:04;101417.84;;;8.79;97.80
49104;BME280;34915;52.926;11.116;2022-11-06T07:15:30;101423.13;;;8.79;97.67
49104;BME280;34915;52.926;11.116;2022-11-06T07:18:01;101428.09;;;8.84;96.71
49104;BME280;34915;52.926;11.116;2022-11-06T07:20:27;101422.50;;;8.90;96.83
49104;BME280;34915;52.926;11.116;2022-11-06T07:22:53;101420.44;;;8.95;95.21
49104;BME280;34915;52.926;11.116;2022-11-06T07:25:18;101417.81;;;8.95;95.49
49104;BME280;34915;52.926;11.116;2022-11-06T07:27:44;101415.16;;;8.95;96.47
49104;BME280;34915;52.926;11.116;2022-11-06T07:30:10;101412.34;;;8.98;96.32
49104;BME280;34915;52.926;11.116;2022-11-06T07:32:35;101408.06;;;8.96;97.47
49104;BME280;34915;52.926;11.116;2022-11-06T07:35:01;101404.44;;;8.98;97.06
49104;BME280;34915;52.926;11.116;2022-11-06T07:37:26;101416.38;;;9.05;97.62
49104;BME280;34915;52.926;11.116;2022-11-06T07:39:52;101409.53;;;9.01;97.41
49104;BME280;34915;52.926;11.116;2022-11-06T07:42:18;101402.38;;;9.03;97.73
49104;BME280;34915;52.926;11.116;2022-11-06T07:44:44;101409.41;;;9.20;96.59
49104;BME280;34915;52.926;11.116;2022-11-06T07:47:09;101413.81;;;9.19;96.13
49104;BME280;34915;52.926;11.116;2022-11-06T07:49:35;101411.63;;;9.27;93.36
49104;BME280;34915;52.926;11.116;2022-11-06T07:52:00;101398.84;;;9.20;95.37
49104;BME280;34915;52.926;11.116;2022-11-06T07:54:29;101400.56;;;9.36;93.29
49104;BME280;34915;52.926;11.116;2022-11-06T07:56:55;101402.59;;;9.31;94.82
49104;BME280;34915;52.926;11.116;2022-11-06T07:59:21;101404.13;;;9.35;94.74
49104;BME280;34915;52.926;11.116;2022-11-06T08:01:46;101405.16;;;9.32;96.06
49104;BME280;34915;52.926;11.116;2022-11-06T08:04:16;101408.38;;;9.22;95.68
49104;BME280;34915;52.926;11.116;2022-11-06T08:06:41;101398.16;;;9.32;95.18
49104;BME280;34915;52.926;11.116;2022-11-06T08:09:07;101406.44;;;9.26;95.69
49104;BME280;34915;52.926;11.116;2022-11-06T08:11:34;101406.59;;;9.38;95.87
49104;BME280;34915;52.926;11.116;2022-11-06T08:14:02;101408.91;;;9.44;93.94
49104;BME280;34915;52.926;11.116;2022-11-06T08:16:28;101405.84;;;9.36;94.92
49104;BME280;34915;52.926;11.116;2022-11-06T08:18:53;101403.78;;;9.41;92.67
49104;BME280;34915;52.926;11.116;2022-11-06T08:21:19;101404.13;;;9.35;94.36
49104;BME280;34915;52.926;11.116;2022-11-06T08:23:45;101402.91;;;9.25;94.95
49104;BME280;34915;52.926;11.116;2022-11-06T08:26:10;101402.78;;;9.28;95.39
49104;BME280;34915;52.926;11.116;2022-11-06T08:28:37;101399.78;;;9.34;93.82
49104;BME280;34915;52.926;11.116;2022-11-06T08:31:06;101402.28;;;9.37;93.63
49104;BME280;34915;52.926;11.116;2022-11-06T08:33:32;101404.63;;;9.26;95.04
49104;BME280;34915;52.926;11.116;2022-11-06T08:36:03;101402.78;;;9.28;94.96
49104;BME280;34915;52.926;11.116;2022-11-06T08:38:29;101405.84;;;9.36;95.04
49104;BME280;34915;52.926;11.116;2022-11-06T08:40:55;101397.47;;;9.59;93.77
49104;BME280;34915;52.926;11.116;2022-11-06T08:43:22;101406.75;;;9.66;93.26
49104;BME280;34915;52.926;11.116;2022-11-06T08:46:09;101404.28;;;9.63;94.90
49104;BME280;34915;52.926;11.116;2022-11-06T08:48:35;101401.38;;;9.67;93.18
49104;BME280;34915;52.926;11.116;2022-11-06T08:51:04;101394.38;;;9.81;92.52
49104;BME280;34915;52.926;11.116;2022-11-06T08:53:34;101390.25;;;9.91;93.54
49104;BME280;34915;52.926;11.116;2022-11-06T08:56:05;101386.16;;;10.01;93.73
49104;BME280;34915;52.926;11.116;2022-11-06T08:58:31;101388.88;;;10.15;90.12
49104;BME280;34915;52.926;11.116;2022-11-06T09:00:59;101380.66;;;10.20;89.87
49104;BME280;34915;52.926;11.116;2022-11-06T09:03:25;101379.25;;;10.28;88.76
49104;BME280;34915;52.926;11.116;2022-11-06T09:05:50;101381.13;;;10.26;89.34
49104;BME280;34915;52.926;11.116;2022-11-06T09:08:16;101386.81;;;10.20;88.31
49104;BME280;34915;52.926;11.116;2022-11-06T09:10:42;101380.56;;;10.21;89.98
49104;BME280;34915;52.926;11.116;2022-11-06T09:13:11;101369.19;;;10.19;89.74
49104;BME280;34915;52.926;11.116;2022-11-06T09:15:37;101378.94;;;10.19;88.77
49104;BME280;34915;52.926;11.116;2022-11-06T09:18:02;101380.84;;;10.17;90.37
49104;BME280;34915;52.926;11.116;2022-11-06T09:20:31;101371.84;;;10.19;90.02
49104;BME280;34915;52.926;11.116;2022-11-06T09:23:01;101365.06;;;10.15;90.35
49104;BME280;34915;52.926;11.116;2022-11-06T09:25:28;101364.19;;;10.15;92.08
49104;BME280;34915;52.926;11.116;2022-11-06T09:27:53;101356.56;;;10.24;90.94
49104;BME280;34915;52.926;11.116;2022-11-06T09:30:21;101360.25;;;10.35;90.61
49104;BME280;34915;52.926;11.116;2022-11-06T09:32:51;101367.75;;;10.43;90.72
49104;BME280;34915;52.926;11.116;2022-11-06T09:35:18;101372.88;;;10.46;91.99
49104;BME280;34915;52.926;11.116;2022-11-06T09:37:46;101368.44;;;10.74;90.76
49104;BME280;34915;52.926;11.116;2022-11-06T09:41:21;101368.72;;;10.83;91.55
49104;BME280;34915;52.926;11.116;2022-11-06T09:44:10;101375.13;;;10.93;88.45
49104;BME280;34915;52.926;11.116;2022-11-06T09:46:43;101361.13;;;10.91;88.62
49104;BME280;34915;52.926;11.116;2022-11-06T09:49:24;101363.69;;;10.93;90.67
49104;BME280;34915;52.926;11.116;2022-11-06T09:54:32;101371.94;;;10.88;87.88
49104;BME280;34915;52.926;11.116;2022-11-06T09:57:18;101364.53;;;10.93;88.70
49104;BME280;34915;52.926;11.116;2022-11-06T09:59:45;101371.34;;;10.97;89.07
49104;BME280;34915;52.926;11.116;2022-11-06T10:02:39;101365.22;;;10.97;88.47
49104;BME280;34915;52.926;11.116;2022-11-06T10:05:13;101364.00;;;11.02;89.64
49104;BME280;34915;52.926;11.116;2022-11-06T10:07:43;101352.06;;;10.95;89.82
49104;BME280;34915;52.926;11.116;2022-11-06T10:10:19;101351.66;;;11.01;88.79
49104;BME280;34915;52.926;11.116;2022-11-06T10:18:38;101350.09;;;11.25;87.86
49104;BME280;34915;52.926;11.116;2022-11-06T10:21:45;101340.41;;;11.38;87.69
49104;BME280;34915;52.926;11.116;2022-11-06T10:27:16;101336.25;;;11.48;87.57
49104;BME280;34915;52.926;11.116;2022-11-06T10:30:28;101343.72;;;11.55;86.26
49104;BME280;34915;52.926;11.116;2022-11-06T10:35:21;101334.84;;;11.69;86.05
49104;BME280;34915;52.926;11.116;2022-11-06T10:37:54;101332.34;;;11.80;85.44
49104;BME280;34915;52.926;11.116;2022-11-06T10:40:25;101324.28;;;11.81;85.49
49104;BME280;34915;52.926;11.116;2022-11-06T10:43:08;101316.47;;;12.04;84.48
49104;BME280;34915;52.926;11.116;2022-11-06T10:45:41;101320.09;;;12.28;85.00
49104;BME280;34915;52.926;11.116;2022-11-06T10:48:21;101303.97;;;12.43;84.31
49104;BME280;34915;52.926;11.116;2022-11-06T10:58:45;101290.53;;;12.94;81.52
49104;BME280;34915;52.926;11.116;2022-11-06T11:01:12;101294.13;;;13.06;82.25
49104;BME280;34915;52.926;11.116;2022-11-06T11:03:42;101299.63;;;13.15;81.11
49104;BME280;34915;52.926;11.116;2022-11-06T11:06:10;101291.94;;;13.23;79.69
49104;BME280;34915;52.926;11.116;2022-11-06T11:08:39;101282.28;;;13.33;80.20
49104;BME280;34915;52.926;11.116;2022-11-06T11:16:26;101276.34;;;13.06;81.34
49104;BME280;34915;52.926;11.116;2022-11-06T11:18:53;101270.53;;;13.01;80.30
49104;BME280;34915;52.926;11.116;2022-11-06T11:21:26;101273.91;;;13.03;81.23
49104;BME280;34915;52.926;11.116;2022-11-06T11:26:31;101261.91;;;13.21;79.67
49104;BME280;34915;52.926;11.116;2022-11-06T11:29:01;101262.75;;;13.22;80.15
49104;BME280;34915;52.926;11.116;2022-11-06T11:31:32;101264.81;;;13.18;79.99
49104;BME280;34915;52.926;11.116;2022-11-06T11:34:01;101262.16;;;13.18;79.06
49104;BME280;34915;52.926;11.116;2022-11-06T11:36:47;101254.75;;;12.98;81.03
49104;BME280;34915;52.926;11.116;2022-11-06T11:39:14;101251.59;;;12.93;81.27
49104;BME280;34915;52.926;11.116;2022-11-06T11:41:43;101244.13;;;12.98;81.82
49104;BME280;34915;52.926;11.116;2022-11-06T11:44:14;101227.06;;;13.13;81.26
49104;BME280;34915;52.926;11.116;2022-11-06T11:46:59;101227.41;;;13.32;79.16
49104;BME280;34915;52.926;11.116;2022-11-06T11:49:32;101220.00;;;13.25;80.31
49104;BME280;34915;52.926;11.116;2022-11-06T11:52:00;101214.31;;;13.29;79.83
49104;BME280;34915;52.926;11.116;2022-11-06T11:54:30;101205.41;;;13.41;79.03
49104;BME280;34915;52.926;11.116;2022-11-06T11:56:59;101205.88;;;13.35;79.40
49104;BME280;34915;52.926;11.116;2022-11-06T12:02:28;101200.31;;;13.38;79.39
49104;BME280;34915;52.926;11.116;2022-11-06T12:04:59;101196.91;;;13.36;77.99
49104;BME280;34915;52.926;11.116;2022-11-06T12:07:52;101198.63;;;13.37;79.80
49104;BME280;34915;52.926;11.116;2022-11-06T12:10:35;101194.78;;;13.41;79.05
49104;BME280;34915;52.926;11.116;2022-11-06T12:13:04;101200.31;;;13.38;78.77
49104;BME280;34915;52.926;11.116;2022-11-06T12:15:44;101195.09;;;13.60;78.19
49104;BME280;34915;52.926;11.116;2022-11-06T12:18:15;101191.44;;;13.61;78.67
49104;BME280;34915;52.926;11.116;2022-11-06T12:20:53;101193.59;;;13.56;79.19
49104;BME280;34915;52.926;11.116;2022-11-06T12:29:12;101191.91;;;13.55;79.72
49104;BME280;34915;52.926;11.116;2022-11-06T12:31:49;101192.41;;;13.60;78.73
49104;BME280;34915;52.926;11.116;2022-11-06T12:39:48;101168.47;;;13.71;77.68
49104;BME280;34915;52.926;11.116;2022-11-06T12:42:19;101175.63;;;13.70;78.44
49104;BME280;34915;52.926;11.116;2022-11-06T12:44:49;101173.06;;;13.69;78.25
49104;BME280;34915;52.926;11.116;2022-11-06T12:47:37;101176.97;;;13.76;79.63
49104;BME280;34915;52.926;11.116;2022-11-06T12:50:31;101162.69;;;13.87;77.08
49104;BME280;34915;52.926;11.116;2022-11-06T12:55:50;101159.53;;;13.72;78.50
49104;BME280;34915;52.926;11.116;2022-11-06T12:59:07;101163.41;;;13.78;77.99
49104;BME280;34915;52.926;11.116;2022-11-06T13:17:50;101128.06;;;13.77;77.21
49104;BME280;34915;52.926;11.116;2022-11-06T13:25:40;101115.97;;;13.73;76.87
49104;BME280;34915;52.926;11.116;2022-11-06T13:30:41;101109.53;;;13.75;76.48
49104;BME280;34915;52.926;11.116;2022-11-06T13:33:24;101110.88;;;13.70;77.11
49104;BME280;34915;52.926;11.116;2022-11-06T13:35:51;101101.91;;;13.71;76.15
49104;BME280;34915;52.926;11.116;2022-11-06T13:38:25;101107.00;;;13.63;76.71
49104;BME280;34915;52.926;11.116;2022-11-06T13:40:56;101107.59;;;13.55;77.63
49104;BME280;34915;52.926;11.116;2022-11-06T13:43:39;101097.66;;;13.46;76.29
49104;BME280;34915;52.926;11.116;2022-11-06T13:48:46;101101.09;;;13.36;76.92
49104;BME280;34915;52.926;11.116;2022-11-06T13:59:58;101083.75;;;13.54;75.55
49104;BME280;34915;52.926;11.116;2022-11-06T14:07:37;101063.53;;;13.51;75.54
49104;BME280;34915;52.926;11.116;2022-11-06T14:10:04;101059.53;;;13.46;75.18
49104;BME280;34915;52.926;11.116;2022-11-06T14:12:30;101052.28;;;13.48;76.42
49104;BME280;34915;52.926;11.116;2022-11-06T14:15:15;101052.53;;;13.45;76.42
49104;BME280;34915;52.926;11.116;2022-11-06T14:17:57;101054.91;;;13.37;77.10
49104;BME280;34915;52.926;11.116;2022-11-06T14:22:52;101041.84;;;13.34;74.88
49104;BME280;34915;52.926;11.116;2022-11-06T14:32:54;101045.88;;;13.05;77.98
49104;BME280;34915;52.926;11.116;2022-11-06T14:40:38;101044.75;;;12.97;76.45
49104;BME280;34915;52.926;11.116;2022-11-06T14:43:31;101047.63;;;12.83;77.78
49104;BME280;34915;52.926;11.116;2022-11-06T14:46:03;101041.25;;;12.85;76.61
49104;BME280;34915;52.926;11.116;2022-11-06T14:48:33;101048.88;;;12.67;78.63
49104;BME280;34915;52.926;11.116;2022-11-06T14:51:02;101042.34;;;12.71;77.61
49104;BME280;34915;52.926;11.116;2022-11-06T14:53:33;101038.34;;;12.65;77.54
49104;BME280;34915;52.926;11.116;2022-11-06T14:56:05;101037.16;;;12.46;78.71
49104;BME280;34915;52.926;11.116;2022-11-06T14:58:35;101035.75;;;12.53;77.89
49104;BME280;34915;52.926;11.116;2022-11-06T15:03:53;101037.34;;;12.32;79.18
49104;BME280;34915;52.926;11.116;2022-11-06T15:08:54;101031.72;;;12.24;79.76
49104;BME280;34915;52.926;11.116;2022-11-06T15:21:44;101024.16;;;12.07;80.20
49104;BME280;34915;52.926;11.116;2022-11-06T15:24:18;101027.97;;;12.03;80.29
49104;BME280;34915;52.926;11.116;2022-11-06T15:26:50;101017.59;;;11.88;81.43
49104;BME280;34915;52.926;11.116;2022-11-06T15:29:23;101018.16;;;11.80;81.39
49104;BME280;34915;52.926;11.116;2022-11-06T15:32:05;101017.13;;;11.71;82.50
49104;BME280;34915;52.926;11.116;2022-11-06T15:38:13;101022.00;;;11.77;81.52